Airfield :







YOU CAN JOIN US ON...

 
LOGIN :

Register | Disclaimer

   EN    FR    IT 

 









Legend :    VFR   Marginal VFR   IFR   Intensive IFR   Very Intensive IFR
Visi :
Ceiling :
>= 8 km
>= 3000ft
5 to 8 km
1000 to 3000 ft
1500m to 5 km
500 to 1000 ft
800 to 1500m
200 to 500 ft
< 800m
< 200 ft
Symbols :   Thunderstorms  Fog  Heavy snow  Heavy precipitations  Wind > 20 kt






- Airport Elevation : 335 ft
- IATA code : BTV


KBTV - Burlington International

CURRENT METAR :
  • 230454Z AUTO 10004KT 10SM 04/01 A3000 RMK AO2 SLP161 T00390006 401780039 $

EXPIRED METARs :
  • 230354Z 06004KT 10SM FEW041 04/01 A3002 RMK AO2 SLP166 LAST T00440006 $
  • 230254Z 07004KT 10SM BKN030 06/02 A3001 RMK AO2 SLP165 T00560017 $

TAF KBTV
Valid from the 23 at 00:00 until the 24 at 00:00 UTC


222320Z 2300/2324 03009KT P6SM BKN035
FM230400 VRB03KT P6SM BKN040
FM231400 32005KT P6SM SCT040 SCT200
KZBW FIR / North America



MET'MAP, your aeronautical weather chart ! - Copyright ORBIFLY December 2007 - Disclaimer

ORBIFLY MET'MAP TEAM :

Programming & Development : Alexandra Zaïnal
Concept & original design : Baudouin d'Aumeries
Assistance for programming : Marc-Olivier Méhu
Technical & hardware support : Manuel Goepfert

Contact : metmap@orbifly.com




SOURCES & CREDITS :

   NOAA